createdAt,value
2018-07-10T00:03:12.925Z,2.20
2018-07-10T00:05:43.394Z,2.12
2018-07-10T00:08:14.776Z,2.00
2018-07-10T00:10:45.785Z,2.30
2018-07-10T00:13:16.304Z,2.42
2018-07-10T00:15:46.338Z,1.60
2018-07-10T00:18:17.404Z,2.30
2018-07-10T00:20:47.223Z,1.92
2018-07-10T00:23:16.991Z,1.60
2018-07-10T00:25:46.629Z,1.75
2018-07-10T00:28:16.172Z,1.80
2018-07-10T00:30:47.201Z,1.60
2018-07-10T00:33:16.854Z,1.80
2018-07-10T00:35:47.239Z,1.98
2018-07-10T00:38:28.216Z,1.77
2018-07-10T00:40:59.093Z,1.80
2018-07-10T00:43:29.920Z,1.58
2018-07-10T00:45:58.859Z,1.95
2018-07-10T00:48:28.742Z,1.90
2018-07-10T00:50:59.012Z,2.08
2018-07-10T00:53:28.511Z,1.80
2018-07-10T00:55:58.073Z,1.95
2018-07-10T00:58:28.100Z,2.67
2018-07-10T01:00:58.020Z,2.17
2018-07-10T01:03:27.634Z,8.73
2018-07-10T01:05:57.235Z,7.28
2018-07-10T01:08:26.881Z,2.30
2018-07-10T01:10:56.416Z,1.95
2018-07-10T01:13:26.966Z,1.90
2018-07-10T01:15:56.600Z,2.20
2018-07-10T01:18:27.161Z,2.10
2018-07-10T01:20:56.896Z,2.12
2018-07-10T01:23:26.933Z,1.98
2018-07-10T01:25:57.401Z,1.90
2018-07-10T01:28:29.260Z,2.10
2018-07-10T01:30:59.177Z,2.25
2018-07-10T01:33:28.941Z,2.40
2018-07-10T01:35:58.983Z,2.10
2018-07-10T01:38:28.704Z,2.17
2018-07-10T01:40:58.611Z,1.90
2018-07-10T01:43:28.081Z,2.12
2018-07-10T01:45:57.558Z,2.10
2018-07-10T01:48:28.035Z,1.75
2018-07-10T01:50:57.436Z,2.05
2018-07-10T01:53:27.148Z,2.10
2018-07-10T01:55:59.669Z,1.92
2018-07-10T01:58:29.246Z,2.50
2018-07-10T02:00:59.034Z,2.87
2018-07-10T02:03:30.141Z,2.50
2018-07-10T02:06:00.001Z,2.70
2018-07-10T02:08:30.454Z,2.40
2018-07-10T02:11:00.128Z,2.20
2018-07-10T02:13:29.851Z,2.42
2018-07-10T02:15:59.578Z,2.35
2018-07-10T02:18:29.628Z,2.47
2018-07-10T02:21:00.929Z,2.33
2018-07-10T02:23:30.905Z,2.33
2018-07-10T02:26:00.668Z,2.53
2018-07-10T02:28:31.524Z,2.40
2018-07-10T02:31:00.982Z,2.70
2018-07-10T02:33:30.987Z,2.50
2018-07-10T02:36:01.676Z,2.20
2018-07-10T02:38:32.265Z,2.42
2018-07-10T02:41:01.966Z,2.40
2018-07-10T02:43:32.576Z,2.00
2018-07-10T02:46:05.892Z,2.08
2018-07-10T02:48:36.310Z,2.10
2018-07-10T02:51:06.094Z,2.10
2018-07-10T02:53:36.095Z,2.03
2018-07-10T02:56:06.022Z,2.10
2018-07-10T02:58:36.029Z,1.80
2018-07-10T03:01:05.997Z,2.30
2018-07-10T03:03:36.604Z,2.37
2018-07-10T03:06:07.513Z,2.22
2018-07-10T03:08:39.326Z,2.10
2018-07-10T03:11:09.712Z,2.25
2018-07-10T03:13:39.808Z,2.20
2018-07-10T03:16:09.857Z,2.17
2018-07-10T03:18:40.633Z,2.50
2018-07-10T03:21:11.782Z,2.20
2018-07-10T03:23:42.096Z,2.12
2018-07-10T03:26:11.571Z,2.00
2018-07-10T03:28:41.617Z,2.25
2018-07-10T03:31:11.049Z,1.95
2018-07-10T03:33:41.019Z,2.20
2018-07-10T03:36:11.005Z,1.80
2018-07-10T03:38:41.514Z,1.80
2018-07-10T03:41:11.708Z,2.10
2018-07-10T03:43:41.504Z,2.00
2018-07-10T03:46:11.894Z,2.00
2018-07-10T03:48:42.666Z,2.20
2018-07-10T03:51:12.992Z,2.58
2018-07-10T03:53:43.598Z,2.30
2018-07-10T03:56:13.843Z,2.00
2018-07-10T03:58:44.320Z,2.15
2018-07-10T04:01:15.198Z,2.50
2018-07-10T04:03:44.824Z,2.87
2018-07-10T04:06:15.832Z,2.90
2018-07-10T04:08:46.442Z,2.60
2018-07-10T04:11:17.092Z,2.50
2018-07-10T04:13:47.059Z,2.40
2018-07-10T04:16:17.043Z,2.15
2018-07-10T04:18:47.492Z,2.55
2018-07-10T04:21:17.863Z,2.80
2018-07-10T04:23:48.224Z,2.62
2018-07-10T04:26:18.773Z,2.83
2018-07-10T04:28:49.442Z,2.80
2018-07-10T04:31:19.699Z,2.60
2018-07-10T04:33:49.408Z,2.50
2018-07-10T04:36:20.885Z,2.42
2018-07-10T04:38:52.041Z,2.00
2018-07-10T04:41:21.882Z,2.50
2018-07-10T04:43:51.963Z,2.70
2018-07-10T04:46:21.681Z,2.55
2018-07-10T04:48:52.014Z,2.45
2018-07-10T04:51:23.186Z,2.12
2018-07-10T04:53:53.082Z,2.60
2018-07-10T04:56:23.306Z,2.33
2018-07-10T04:58:53.270Z,2.28
2018-07-10T05:01:23.276Z,2.25
2018-07-10T05:03:53.524Z,2.22
2018-07-10T05:06:24.161Z,2.67
2018-07-10T05:08:54.368Z,2.20
2018-07-10T05:11:24.442Z,2.70
2018-07-10T05:13:54.795Z,2.25
2018-07-10T05:16:26.177Z,2.27
2018-07-10T05:18:56.689Z,2.30
2018-07-10T05:21:26.843Z,2.47
2018-07-10T05:23:56.654Z,2.55
2018-07-10T05:26:26.719Z,2.22
2018-07-10T05:28:59.770Z,2.70
2018-07-10T05:31:30.308Z,2.50
2018-07-10T05:34:00.178Z,2.65
2018-07-10T05:36:30.813Z,2.67
2018-07-10T05:39:01.514Z,2.63
2018-07-10T05:41:31.815Z,2.08
2018-07-10T05:44:01.707Z,2.50
2018-07-10T05:46:31.594Z,3.03
2018-07-10T05:49:01.860Z,2.87
2018-07-10T05:51:33.119Z,2.53
2018-07-10T05:54:03.898Z,2.70
2018-07-10T05:56:33.412Z,2.70
2018-07-10T05:59:03.593Z,2.33
2018-07-10T06:01:35.187Z,2.57
2018-07-10T06:04:05.161Z,2.50
2018-07-10T06:06:35.533Z,3.67
2018-07-10T06:09:05.465Z,3.23
2018-07-10T06:11:36.224Z,2.95
2018-07-10T06:14:06.298Z,3.05
2018-07-10T06:16:36.300Z,2.80
2018-07-10T06:19:06.155Z,2.70
2018-07-10T06:21:35.946Z,2.85
2018-07-10T06:24:06.144Z,3.15
2018-07-10T06:26:36.158Z,3.10
2018-07-10T06:29:05.695Z,3.07
2018-07-10T06:31:35.492Z,2.78
2018-07-10T06:34:05.228Z,3.23
2018-07-10T06:36:35.534Z,2.85
2018-07-10T06:39:05.442Z,3.30
2018-07-10T06:41:35.454Z,2.85
2018-07-10T06:44:05.267Z,3.15
2018-07-10T06:46:35.672Z,3.20
2018-07-10T06:49:05.337Z,3.60
2018-07-10T06:51:36.831Z,3.40
2018-07-10T06:54:06.478Z,3.47
2018-07-10T06:56:36.481Z,3.20
2018-07-10T06:59:06.266Z,3.30
2018-07-10T07:01:35.819Z,3.40
2018-07-10T07:04:06.826Z,3.17
2018-07-10T07:06:36.322Z,3.55
2018-07-10T07:09:05.965Z,3.70
2018-07-10T07:11:35.867Z,3.78
2018-07-10T07:14:06.418Z,3.37
2018-07-10T07:16:36.107Z,3.58
2018-07-10T07:19:05.816Z,3.75
2018-07-10T07:21:35.182Z,3.80
2018-07-10T07:24:04.916Z,4.40
2018-07-10T07:26:34.284Z,4.17
2018-07-10T07:29:04.877Z,4.35
2018-07-10T07:31:34.847Z,5.22
2018-07-10T07:34:04.465Z,5.40
2018-07-10T07:36:34.206Z,5.20
2018-07-10T07:39:04.207Z,4.95
2018-07-10T07:41:34.315Z,4.80
2018-07-10T07:44:04.851Z,4.20
2018-07-10T07:46:35.005Z,4.80
2018-07-10T07:49:05.018Z,4.63
2018-07-10T07:51:34.565Z,4.60
2018-07-10T07:54:05.221Z,4.30
2018-07-10T07:56:36.097Z,4.17
2018-07-10T07:59:05.986Z,4.53
2018-07-10T08:01:35.588Z,5.20
2018-07-10T08:04:05.247Z,6.17
2018-07-10T08:06:35.205Z,5.13
2018-07-10T08:09:04.871Z,5.80
2018-07-10T08:11:34.418Z,5.50
2018-07-10T08:14:04.625Z,5.57
2018-07-10T08:16:34.529Z,6.10
2018-07-10T08:19:04.386Z,5.65
2018-07-10T08:21:34.067Z,5.47
2018-07-10T08:24:03.776Z,5.50
2018-07-10T08:26:34.457Z,5.05
2018-07-10T08:29:05.043Z,5.47
2018-07-10T08:31:35.502Z,5.97
2018-07-10T08:34:05.090Z,5.97
2018-07-10T08:36:34.789Z,6.53
2018-07-10T08:39:06.212Z,6.70
2018-07-10T08:41:37.353Z,7.00
2018-07-10T08:44:06.896Z,7.33
2018-07-10T08:46:36.948Z,7.20
2018-07-10T08:49:06.915Z,6.93
2018-07-10T08:51:37.119Z,6.87
2018-07-10T08:54:07.296Z,6.83
2018-07-10T08:56:37.407Z,7.53
2018-07-10T08:59:08.051Z,7.40
2018-07-10T09:01:37.564Z,7.30
2018-07-10T09:04:07.545Z,8.03
2018-07-10T09:06:38.689Z,7.33
2018-07-10T09:09:08.548Z,7.23
2018-07-10T09:11:38.614Z,8.03
2018-07-10T09:14:08.057Z,7.47
2018-07-10T09:16:38.376Z,7.57
2018-07-10T09:19:08.522Z,7.70
2018-07-10T09:21:38.548Z,7.77
2018-07-10T09:24:07.985Z,8.20
2018-07-10T09:26:38.046Z,8.23
2018-07-10T09:29:07.752Z,8.10
2018-07-10T09:31:37.155Z,7.77
2018-07-10T09:34:06.478Z,8.00
2018-07-10T09:36:36.249Z,7.37
2018-07-10T09:39:06.556Z,6.90
2018-07-10T09:41:36.553Z,6.70
2018-07-10T09:44:07.336Z,7.40
2018-07-10T09:46:38.280Z,7.70
2018-07-10T09:49:08.749Z,6.80
2018-07-10T09:51:39.538Z,6.60
2018-07-10T09:54:08.835Z,6.00
2018-07-10T09:56:39.143Z,6.00
2018-07-10T09:59:09.285Z,6.63
2018-07-10T10:01:39.704Z,6.43
2018-07-10T10:04:09.047Z,6.43
2018-07-10T10:06:38.716Z,6.30
2018-07-10T10:09:09.675Z,6.57
2018-07-10T10:11:39.424Z,6.30
2018-07-10T10:14:09.546Z,5.10
2018-07-10T10:16:39.742Z,5.53
2018-07-10T10:19:09.602Z,5.77
2018-07-10T10:21:39.478Z,6.07
2018-07-10T10:24:09.623Z,5.30
2018-07-10T10:26:39.383Z,6.00
2018-07-10T10:29:08.905Z,6.00
2018-07-10T10:31:38.814Z,5.73
2018-07-10T10:34:08.576Z,6.00
2018-07-10T10:36:37.915Z,6.83
2018-07-10T10:39:07.855Z,6.50
2018-07-10T10:41:39.093Z,7.23
2018-07-10T10:44:09.058Z,6.60
2018-07-10T10:46:39.186Z,7.00
2018-07-10T10:49:08.722Z,6.83
2018-07-10T10:51:39.128Z,7.00
2018-07-10T10:54:08.672Z,6.73
2018-07-10T10:56:38.542Z,6.77
2018-07-10T10:59:08.928Z,6.60
2018-07-10T11:01:39.354Z,6.87
2018-07-10T11:04:09.458Z,6.60
2018-07-10T11:06:40.288Z,6.80
2018-07-10T11:09:10.157Z,6.70
2018-07-10T11:11:40.755Z,6.60
2018-07-10T11:14:10.613Z,6.57
2018-07-10T11:16:41.302Z,6.70
2018-07-10T11:19:11.402Z,6.40
2018-07-10T11:21:42.118Z,6.23
2018-07-10T11:24:14.425Z,6.53
2018-07-10T11:26:44.165Z,5.93
2018-07-10T11:29:13.993Z,5.50
2018-07-10T11:31:43.588Z,6.60
2018-07-10T11:34:13.852Z,6.33
2018-07-10T11:36:43.286Z,6.10
2018-07-10T11:39:13.358Z,6.17
2018-07-10T11:41:44.263Z,5.50
2018-07-10T11:44:13.740Z,5.20
2018-07-10T11:46:43.664Z,5.60
2018-07-10T11:49:13.500Z,5.70
2018-07-10T11:51:44.145Z,5.37
2018-07-10T11:54:13.818Z,5.60
2018-07-10T11:56:43.281Z,5.90
2018-07-10T11:59:13.011Z,5.50
2018-07-10T12:01:44.193Z,5.60
2018-07-10T12:04:13.856Z,5.57
2018-07-10T12:06:44.200Z,5.20
2018-07-10T12:09:13.789Z,5.10
2018-07-10T12:11:43.808Z,4.80
2018-07-10T12:14:14.229Z,5.20
2018-07-10T12:16:43.875Z,5.23
2018-07-10T12:19:13.493Z,4.50
2018-07-10T12:21:43.679Z,4.93
2018-07-10T12:24:13.718Z,5.20
2018-07-10T12:26:43.511Z,4.97
2018-07-10T12:29:13.420Z,4.50
2018-07-10T12:31:43.022Z,4.30
2018-07-10T12:34:12.667Z,5.00
2018-07-10T12:36:42.392Z,4.80
2018-07-10T12:39:11.944Z,4.60
2018-07-10T12:41:41.507Z,4.57
2018-07-10T12:44:14.459Z,4.40
2018-07-10T12:46:44.676Z,5.70
2018-07-10T12:49:14.495Z,4.80
2018-07-10T12:51:44.413Z,5.13
2018-07-10T12:54:14.531Z,4.93
2018-07-10T12:56:46.298Z,4.60
2018-07-10T12:59:17.242Z,4.90
2018-07-10T13:01:46.907Z,4.37
2018-07-10T13:04:17.344Z,4.37
2018-07-10T13:06:47.262Z,4.23
2018-07-10T13:09:17.069Z,4.60
2018-07-10T13:11:46.851Z,4.40
2018-07-10T13:14:16.506Z,4.63
2018-07-10T13:16:46.078Z,4.73
2018-07-10T13:19:16.325Z,4.13
2018-07-10T13:21:45.981Z,4.20
2018-07-10T13:24:15.504Z,4.23
2018-07-10T13:26:46.235Z,3.70
2018-07-10T13:29:17.638Z,3.80
2018-07-10T13:31:48.263Z,4.03
2018-07-10T13:34:22.283Z,4.00
2018-07-10T13:36:53.057Z,3.93
2018-07-10T13:39:22.673Z,4.20
2018-07-10T13:41:52.768Z,4.07
2018-07-10T13:44:22.112Z,3.83
2018-07-10T13:46:52.677Z,4.07
2018-07-10T13:49:23.092Z,4.20
2018-07-10T13:51:53.162Z,3.77
2018-07-10T13:54:23.387Z,3.70
2018-07-10T13:56:53.492Z,3.30
2018-07-10T13:59:23.658Z,3.70
2018-07-10T14:01:53.918Z,3.63
2018-07-10T14:04:23.693Z,3.30
2018-07-10T14:06:53.677Z,4.10
2018-07-10T14:09:23.043Z,3.90
2018-07-10T14:11:53.753Z,3.60
2018-07-10T14:14:24.044Z,4.20
2018-07-10T14:16:53.638Z,3.60
2018-07-10T14:19:23.037Z,3.90
2018-07-10T14:21:52.773Z,3.70
2018-07-10T14:24:22.574Z,3.73
2018-07-10T14:26:51.897Z,3.40
2018-07-10T14:29:22.496Z,4.27
2018-07-10T14:31:52.311Z,3.63
2018-07-10T14:34:21.683Z,4.00
2018-07-10T14:36:51.036Z,4.07
2018-07-10T14:39:20.920Z,3.80
2018-07-10T14:41:51.301Z,3.77
2018-07-10T14:44:21.943Z,3.70
2018-07-10T14:46:51.872Z,3.90
2018-07-10T14:49:22.020Z,3.63
2018-07-10T14:51:51.893Z,4.23
2018-07-10T14:54:22.063Z,4.27
2018-07-10T14:56:52.008Z,4.50
2018-07-10T14:59:22.557Z,4.47
2018-07-10T15:01:52.354Z,4.27
2018-07-10T15:04:23.155Z,4.90
2018-07-10T15:06:52.793Z,4.80
2018-07-10T15:09:23.309Z,4.30
2018-07-10T15:11:52.825Z,4.90
2018-07-10T15:14:22.099Z,4.50
2018-07-10T15:16:51.759Z,4.73
2018-07-10T15:19:21.553Z,5.20
2018-07-10T15:21:51.863Z,4.83
2018-07-10T15:24:33.100Z,4.60
2018-07-10T15:27:04.920Z,5.00
2018-07-10T15:29:34.829Z,5.13
2018-07-10T15:32:05.335Z,5.00
2018-07-10T15:34:35.215Z,4.80
2018-07-10T15:37:05.368Z,4.83
2018-07-10T15:39:34.985Z,5.30
2018-07-10T15:42:05.472Z,4.93
2018-07-10T15:44:35.002Z,4.57
2018-07-10T15:47:04.949Z,5.40
2018-07-10T15:49:35.882Z,4.80
2018-07-10T15:52:07.314Z,5.33
2018-07-10T15:54:38.432Z,4.77
2018-07-10T15:57:08.124Z,5.00
2018-07-10T15:59:37.581Z,5.17
2018-07-10T16:02:08.490Z,4.50
2018-07-10T16:04:37.974Z,4.57
2018-07-10T16:07:07.512Z,4.33
2018-07-10T16:09:37.272Z,4.80
2018-07-10T16:12:07.168Z,4.80
2018-07-10T16:14:36.997Z,4.30
2018-07-10T16:17:07.207Z,4.13
2018-07-10T16:19:37.201Z,4.27
2018-07-10T16:22:08.003Z,4.33
2018-07-10T16:24:38.187Z,4.40
2018-07-10T16:27:08.736Z,4.53
2018-07-10T16:29:38.411Z,4.23
2018-07-10T16:32:09.066Z,4.50
2018-07-10T16:34:39.904Z,4.53
2018-07-10T16:37:09.569Z,4.37
2018-07-10T16:39:40.052Z,3.87
2018-07-10T16:42:11.309Z,4.10
2018-07-10T16:44:41.353Z,4.30
2018-07-10T16:47:11.480Z,4.67
2018-07-10T16:49:41.204Z,4.70
2018-07-10T16:52:11.653Z,4.27
2018-07-10T16:54:45.272Z,4.27
2018-07-10T16:57:16.074Z,3.87
2018-07-10T16:59:45.855Z,4.10
2018-07-10T17:02:16.024Z,4.30
2018-07-10T17:04:45.725Z,4.00
2018-07-10T17:07:18.160Z,4.10
2018-07-10T17:09:47.741Z,3.90
2018-07-10T17:12:17.252Z,4.30
2018-07-10T17:14:46.951Z,3.80
2018-07-10T17:17:16.811Z,3.63
2018-07-10T17:19:46.905Z,4.13
2018-07-10T17:22:16.763Z,4.13
2018-07-10T17:24:49.117Z,3.50
2018-07-10T17:27:18.973Z,4.03
2018-07-10T17:29:48.759Z,4.17
2018-07-10T17:32:18.980Z,4.10
2018-07-10T17:34:49.038Z,4.03
2018-07-10T17:37:19.065Z,4.00
2018-07-10T17:39:48.675Z,3.60
2018-07-10T17:42:19.116Z,3.73
2018-07-10T17:44:49.111Z,3.63
2018-07-10T17:47:18.697Z,3.40
2018-07-10T17:49:48.232Z,3.63
2018-07-10T17:52:17.834Z,3.23
2018-07-10T17:54:47.464Z,3.77
2018-07-10T17:57:17.308Z,3.43
2018-07-10T17:59:47.469Z,3.80
2018-07-10T18:02:17.255Z,3.67
2018-07-10T18:04:46.863Z,3.40
2018-07-10T18:07:16.744Z,3.40
2018-07-10T18:09:46.490Z,4.50
2018-07-10T18:12:16.150Z,3.87
2018-07-10T18:14:45.602Z,3.90
2018-07-10T18:17:15.150Z,3.30
2018-07-10T18:19:45.122Z,3.50
2018-07-10T18:22:15.116Z,3.07
2018-07-10T18:24:45.420Z,3.90
2018-07-10T18:27:15.097Z,3.93
2018-07-10T18:29:44.989Z,3.60
2018-07-10T18:32:16.570Z,3.40
2018-07-10T18:34:46.555Z,3.67
2018-07-10T18:37:16.016Z,3.60
2018-07-10T18:39:46.230Z,3.60
2018-07-10T18:42:16.267Z,3.23
2018-07-10T18:44:46.699Z,3.47
2018-07-10T18:47:16.626Z,4.30
2018-07-10T18:49:46.588Z,5.03
2018-07-10T18:52:16.367Z,4.60
2018-07-10T18:54:45.741Z,3.80
2018-07-10T18:57:15.628Z,3.80
2018-07-10T18:59:48.885Z,3.90
2018-07-10T19:02:19.992Z,3.70
2018-07-10T19:04:49.678Z,4.10
2018-07-10T19:07:19.182Z,4.13
2018-07-10T19:09:49.268Z,3.80
2018-07-10T19:12:19.868Z,3.73
2018-07-10T19:14:50.463Z,3.70
2018-07-10T19:17:21.251Z,4.07
2018-07-10T19:19:51.941Z,3.90
2018-07-10T19:22:21.750Z,4.57
2018-07-10T19:24:52.551Z,4.80
2018-07-10T19:27:22.267Z,5.73
2018-07-10T19:29:53.917Z,4.20
2018-07-10T19:32:24.263Z,4.33
2018-07-10T19:34:54.547Z,4.43
2018-07-10T19:37:24.683Z,3.90
2018-07-10T19:39:54.611Z,4.20
2018-07-10T19:42:24.558Z,4.40
2018-07-10T19:44:54.202Z,5.03
2018-07-10T19:47:24.193Z,4.40
2018-07-10T19:49:54.001Z,4.20
2018-07-10T19:52:24.113Z,4.70
2018-07-10T19:54:55.633Z,4.60
2018-07-10T19:57:25.786Z,4.80
2018-07-10T19:59:57.160Z,4.35
2018-07-10T20:02:28.135Z,4.53
2018-07-10T20:04:57.914Z,4.40
2018-07-10T20:07:29.500Z,5.25
2018-07-10T20:09:59.516Z,4.77
2018-07-10T20:12:29.398Z,4.90
2018-07-10T20:14:59.548Z,4.90
2018-07-10T20:17:29.447Z,4.87
2018-07-10T20:19:59.176Z,4.75
2018-07-10T20:22:29.330Z,4.90
2018-07-10T20:24:59.264Z,5.60
2018-07-10T20:27:29.396Z,4.80
2018-07-10T20:29:59.565Z,5.20
2018-07-10T20:32:29.660Z,6.07
2018-07-10T20:34:59.467Z,6.03
2018-07-10T20:37:29.587Z,6.82
2018-07-10T20:40:02.168Z,5.60
2018-07-10T20:42:32.124Z,6.00
2018-07-10T20:45:02.270Z,6.55
2018-07-10T20:47:33.765Z,9.27
2018-07-10T20:50:03.469Z,7.47
2018-07-10T20:52:32.874Z,6.68
2018-07-10T20:55:03.406Z,6.70
2018-07-10T20:57:32.957Z,10.20
2018-07-10T21:00:03.010Z,8.07
2018-07-10T21:02:33.820Z,8.43
2018-07-10T21:05:03.955Z,7.87
2018-07-10T21:07:34.077Z,6.43
2018-07-10T21:10:03.608Z,6.65
2018-07-10T21:12:33.810Z,6.22
2018-07-10T21:15:04.618Z,6.82
2018-07-10T21:17:34.781Z,6.47
2018-07-10T21:20:05.419Z,6.50
2018-07-10T21:22:35.073Z,6.00
2018-07-10T21:25:04.948Z,6.70
2018-07-10T21:27:34.907Z,6.55
2018-07-10T21:30:06.363Z,5.70
2018-07-10T21:32:37.866Z,6.43
2018-07-10T21:35:07.716Z,6.62
2018-07-10T21:37:37.809Z,5.70
2018-07-10T21:40:07.714Z,6.78
2018-07-10T21:42:37.698Z,5.75
2018-07-10T21:45:07.222Z,5.12
2018-07-10T21:47:37.076Z,5.35
2018-07-10T21:50:07.441Z,5.62
2018-07-10T21:52:36.917Z,5.93
2018-07-10T21:55:07.199Z,6.05
2018-07-10T21:57:37.432Z,5.07
2018-07-10T22:00:07.137Z,5.50
2018-07-10T22:02:37.005Z,5.80
2018-07-10T22:05:06.955Z,5.78
2018-07-10T22:07:36.619Z,5.25
2018-07-10T22:10:07.064Z,4.90
2018-07-10T22:12:36.815Z,5.32
2018-07-10T22:15:07.460Z,5.18
2018-07-10T22:17:38.200Z,4.95
2018-07-10T22:20:09.201Z,4.78
2018-07-10T22:22:39.390Z,5.07
2018-07-10T22:25:09.762Z,4.60
2018-07-10T22:27:39.653Z,4.65
2018-07-10T22:30:09.611Z,4.78
2018-07-10T22:32:39.251Z,4.43
2018-07-10T22:35:10.196Z,4.95
2018-07-10T22:37:40.214Z,5.18
2018-07-10T22:40:10.645Z,4.32
2018-07-10T22:42:40.073Z,4.25
2018-07-10T22:45:11.641Z,4.65
2018-07-10T22:47:41.889Z,4.62
2018-07-10T22:50:12.225Z,5.53
2018-07-10T22:52:42.912Z,4.80
2018-07-10T22:55:13.193Z,5.00
2018-07-10T22:57:43.957Z,4.93
2018-07-10T23:00:14.681Z,4.15
2018-07-10T23:02:44.780Z,3.95
2018-07-10T23:05:14.978Z,4.60
2018-07-10T23:07:44.461Z,3.90
2018-07-10T23:10:14.627Z,4.35
2018-07-10T23:12:45.603Z,4.20
2018-07-10T23:15:15.626Z,4.00
2018-07-10T23:17:48.088Z,4.43
2018-07-10T23:20:17.903Z,4.05
2018-07-10T23:23:01.939Z,4.10
2018-07-10T23:25:32.290Z,4.20
2018-07-10T23:28:02.120Z,3.95
2018-07-10T23:30:32.470Z,4.12
2018-07-10T23:33:02.537Z,4.22
2018-07-10T23:35:32.963Z,3.28
2018-07-10T23:38:03.020Z,4.20
2018-07-10T23:40:33.011Z,6.40
2018-07-10T23:43:03.307Z,3.92
2018-07-10T23:45:33.332Z,4.10
2018-07-10T23:48:03.456Z,4.97
2018-07-10T23:50:33.418Z,4.43
2018-07-10T23:53:05.821Z,3.78
2018-07-10T23:55:35.709Z,3.72
2018-07-10T23:58:05.182Z,3.90
